Terminal Aerodrome Forecast
Issued by NWS

Home | Current Version | Previous Version | Graphics & Text | Print | Product List | Glossary On
Versions: 1 2 3 4 5 6 7 8 9 10 11 12 13
078
FTUS43 KMPX 011735
TAFAXN
TAF
KAXN 011735Z 0118/0218 04013G19KT P6SM SKC
     FM012100 03009KT P6SM SKC
     FM020100 VRB03KT P6SM SKC
     FM021300 21005KT P6SM SKC=

USA.gov is the U.S. government's official web portal to all federal, state and local government web resources and services.